sensor_id;sensor_type;location;lat;lon;timestamp;P1;durP1;ratioP1;P2;durP2;ratioP2
47367;SDS011;34646;47.964;7.982;2023-08-06T00:02:52;2.00;;;0.93;;
47367;SDS011;34646;47.964;7.982;2023-08-06T00:08:52;2.20;;;1.27;;
47367;SDS011;34646;47.964;7.982;2023-08-06T00:14:55;3.38;;;1.38;;
47367;SDS011;34646;47.964;7.982;2023-08-06T00:20:55;4.30;;;1.13;;
47367;SDS011;34646;47.964;7.982;2023-08-06T00:26:56;2.23;;;1.10;;
47367;SDS011;34646;47.964;7.982;2023-08-06T00:32:57;3.23;;;1.13;;
47367;SDS011;34646;47.964;7.982;2023-08-06T00:38:58;9.73;;;1.80;;
47367;SDS011;34646;47.964;7.982;2023-08-06T00:44:58;2.67;;;1.10;;
47367;SDS011;34646;47.964;7.982;2023-08-06T00:51:00;2.50;;;1.27;;
47367;SDS011;34646;47.964;7.982;2023-08-06T00:57:01;2.22;;;0.98;;
47367;SDS011;34646;47.964;7.982;2023-08-06T01:09:07;2.13;;;1.10;;
47367;SDS011;34646;47.964;7.982;2023-08-06T01:15:29;4.28;;;1.02;;
47367;SDS011;34646;47.964;7.982;2023-08-06T01:21:33;3.00;;;1.20;;
47367;SDS011;34646;47.964;7.982;2023-08-06T01:33:44;2.08;;;1.05;;
47367;SDS011;34646;47.964;7.982;2023-08-06T01:39:47;1.80;;;1.08;;
47367;SDS011;34646;47.964;7.982;2023-08-06T01:45:48;3.72;;;1.30;;
47367;SDS011;34646;47.964;7.982;2023-08-06T01:51:49;1.60;;;1.00;;
47367;SDS011;34646;47.964;7.982;2023-08-06T01:57:50;2.83;;;0.93;;
47367;SDS011;34646;47.964;7.982;2023-08-06T02:03:50;1.80;;;1.00;;
47367;SDS011;34646;47.964;7.982;2023-08-06T02:09:51;1.77;;;0.90;;
47367;SDS011;34646;47.964;7.982;2023-08-06T02:15:52;1.50;;;1.00;;
47367;SDS011;34646;47.964;7.982;2023-08-06T02:21:52;1.40;;;0.90;;
47367;SDS011;34646;47.964;7.982;2023-08-06T02:27:53;0.90;;;0.67;;
47367;SDS011;34646;47.964;7.982;2023-08-06T02:33:53;1.30;;;0.70;;
47367;SDS011;34646;47.964;7.982;2023-08-06T02:39:55;1.63;;;1.00;;
47367;SDS011;34646;47.964;7.982;2023-08-06T02:46:02;1.63;;;1.00;;
47367;SDS011;34646;47.964;7.982;2023-08-06T02:52:03;1.75;;;0.93;;
47367;SDS011;34646;47.964;7.982;2023-08-06T02:58:04;1.70;;;0.90;;
47367;SDS011;34646;47.964;7.982;2023-08-06T03:04:09;2.88;;;1.20;;
47367;SDS011;34646;47.964;7.982;2023-08-06T03:10:15;1.75;;;1.05;;
47367;SDS011;34646;47.964;7.982;2023-08-06T03:16:17;1.73;;;0.90;;
47367;SDS011;34646;47.964;7.982;2023-08-06T03:22:19;1.65;;;1.05;;
47367;SDS011;34646;47.964;7.982;2023-08-06T03:28:27;1.13;;;0.80;;
47367;SDS011;34646;47.964;7.982;2023-08-06T03:34:29;1.30;;;0.90;;
47367;SDS011;34646;47.964;7.982;2023-08-06T03:40:30;2.50;;;1.20;;
47367;SDS011;34646;47.964;7.982;2023-08-06T03:46:33;1.60;;;1.00;;
47367;SDS011;34646;47.964;7.982;2023-08-06T03:52:36;0.98;;;0.75;;
47367;SDS011;34646;47.964;7.982;2023-08-06T03:58:37;1.42;;;0.85;;
47367;SDS011;34646;47.964;7.982;2023-08-06T04:04:38;1.23;;;0.80;;
47367;SDS011;34646;47.964;7.982;2023-08-06T04:10:39;3.33;;;1.30;;
47367;SDS011;34646;47.964;7.982;2023-08-06T04:16:40;1.00;;;0.80;;
47367;SDS011;34646;47.964;7.982;2023-08-06T04:22:41;1.45;;;0.80;;
47367;SDS011;34646;47.964;7.982;2023-08-06T04:28:42;1.10;;;0.70;;
47367;SDS011;34646;47.964;7.982;2023-08-06T04:34:43;1.60;;;0.83;;
47367;SDS011;34646;47.964;7.982;2023-08-06T04:40:44;1.33;;;0.60;;
47367;SDS011;34646;47.964;7.982;2023-08-06T04:46:45;2.45;;;0.85;;
47367;SDS011;34646;47.964;7.982;2023-08-06T04:52:46;1.27;;;0.80;;
47367;SDS011;34646;47.964;7.982;2023-08-06T04:58:47;2.10;;;0.90;;
47367;SDS011;34646;47.964;7.982;2023-08-06T05:04:47;1.37;;;1.00;;
47367;SDS011;34646;47.964;7.982;2023-08-06T05:10:48;1.73;;;0.87;;
47367;SDS011;34646;47.964;7.982;2023-08-06T05:16:48;1.60;;;0.50;;
47367;SDS011;34646;47.964;7.982;2023-08-06T05:22:50;1.33;;;0.90;;
47367;SDS011;34646;47.964;7.982;2023-08-06T05:28:51;2.78;;;0.70;;
47367;SDS011;34646;47.964;7.982;2023-08-06T05:34:51;1.63;;;0.80;;
47367;SDS011;34646;47.964;7.982;2023-08-06T05:40:53;1.17;;;0.80;;
47367;SDS011;34646;47.964;7.982;2023-08-06T05:46:55;1.02;;;0.63;;
47367;SDS011;34646;47.964;7.982;2023-08-06T05:52:56;1.10;;;0.77;;
47367;SDS011;34646;47.964;7.982;2023-08-06T05:58:57;1.60;;;0.77;;
47367;SDS011;34646;47.964;7.982;2023-08-06T06:04:57;2.03;;;0.50;;
47367;SDS011;34646;47.964;7.982;2023-08-06T06:10:58;1.33;;;0.30;;
47367;SDS011;34646;47.964;7.982;2023-08-06T06:16:59;4.53;;;0.57;;
47367;SDS011;34646;47.964;7.982;2023-08-06T06:23:02;1.65;;;0.80;;
47367;SDS011;34646;47.964;7.982;2023-08-06T06:29:03;4.83;;;0.80;;
47367;SDS011;34646;47.964;7.982;2023-08-06T06:35:04;9.30;;;0.90;;
47367;SDS011;34646;47.964;7.982;2023-08-06T06:41:05;2.92;;;0.80;;
47367;SDS011;34646;47.964;7.982;2023-08-06T06:47:05;2.97;;;0.73;;
47367;SDS011;34646;47.964;7.982;2023-08-06T06:53:06;2.57;;;0.53;;
47367;SDS011;34646;47.964;7.982;2023-08-06T06:59:07;2.57;;;0.93;;
47367;SDS011;34646;47.964;7.982;2023-08-06T07:05:07;3.53;;;0.63;;
47367;SDS011;34646;47.964;7.982;2023-08-06T07:11:09;4.18;;;0.75;;
47367;SDS011;34646;47.964;7.982;2023-08-06T07:17:10;3.13;;;0.80;;
47367;SDS011;34646;47.964;7.982;2023-08-06T07:23:11;2.47;;;0.40;;
47367;SDS011;34646;47.964;7.982;2023-08-06T07:29:11;3.27;;;0.40;;
47367;SDS011;34646;47.964;7.982;2023-08-06T07:35:12;3.57;;;0.70;;
47367;SDS011;34646;47.964;7.982;2023-08-06T07:41:14;3.03;;;0.45;;
47367;SDS011;34646;47.964;7.982;2023-08-06T07:47:15;2.20;;;0.70;;
47367;SDS011;34646;47.964;7.982;2023-08-06T07:53:15;3.10;;;0.60;;
47367;SDS011;34646;47.964;7.982;2023-08-06T07:59:16;1.83;;;0.57;;
47367;SDS011;34646;47.964;7.982;2023-08-06T08:05:17;2.63;;;0.63;;
47367;SDS011;34646;47.964;7.982;2023-08-06T08:11:17;6.27;;;0.90;;
47367;SDS011;34646;47.964;7.982;2023-08-06T08:17:18;1.90;;;0.53;;
47367;SDS011;34646;47.964;7.982;2023-08-06T08:23:19;4.87;;;0.70;;
47367;SDS011;34646;47.964;7.982;2023-08-06T08:29:20;2.50;;;0.60;;
47367;SDS011;34646;47.964;7.982;2023-08-06T08:35:21;2.78;;;0.68;;
47367;SDS011;34646;47.964;7.982;2023-08-06T08:41:22;4.43;;;0.80;;
47367;SDS011;34646;47.964;7.982;2023-08-06T08:47:24;1.00;;;0.50;;
47367;SDS011;34646;47.964;7.982;2023-08-06T08:59:28;1.25;;;0.50;;
47367;SDS011;34646;47.964;7.982;2023-08-06T09:05:29;1.23;;;0.50;;
47367;SDS011;34646;47.964;7.982;2023-08-06T09:11:35;1.13;;;0.50;;
47367;SDS011;34646;47.964;7.982;2023-08-06T09:17:40;1.27;;;0.40;;
47367;SDS011;34646;47.964;7.982;2023-08-06T09:23:41;1.30;;;0.40;;
47367;SDS011;34646;47.964;7.982;2023-08-06T09:29:42;1.07;;;0.40;;
47367;SDS011;34646;47.964;7.982;2023-08-06T09:35:47;1.10;;;0.50;;
47367;SDS011;34646;47.964;7.982;2023-08-06T09:41:48;1.40;;;0.60;;
47367;SDS011;34646;47.964;7.982;2023-08-06T09:47:56;1.20;;;0.45;;
47367;SDS011;34646;47.964;7.982;2023-08-06T09:53:57;1.38;;;0.40;;
47367;SDS011;34646;47.964;7.982;2023-08-06T10:00:01;1.58;;;0.52;;
47367;SDS011;34646;47.964;7.982;2023-08-06T10:06:13;0.93;;;0.40;;
47367;SDS011;34646;47.964;7.982;2023-08-06T10:12:14;0.70;;;0.30;;
47367;SDS011;34646;47.964;7.982;2023-08-06T10:18:18;0.60;;;0.30;;
47367;SDS011;34646;47.964;7.982;2023-08-06T10:24:22;2.45;;;0.40;;
47367;SDS011;34646;47.964;7.982;2023-08-06T10:30:32;0.50;;;0.30;;
47367;SDS011;34646;47.964;7.982;2023-08-06T10:36:33;1.13;;;0.30;;
47367;SDS011;34646;47.964;7.982;2023-08-06T10:42:35;1.25;;;0.40;;
47367;SDS011;34646;47.964;7.982;2023-08-06T10:54:38;0.53;;;0.27;;
47367;SDS011;34646;47.964;7.982;2023-08-06T11:00:39;1.00;;;0.30;;
47367;SDS011;34646;47.964;7.982;2023-08-06T11:06:39;0.67;;;0.30;;
47367;SDS011;34646;47.964;7.982;2023-08-06T11:12:42;1.67;;;0.30;;
47367;SDS011;34646;47.964;7.982;2023-08-06T11:18:43;0.33;;;0.20;;
47367;SDS011;34646;47.964;7.982;2023-08-06T11:24:44;1.85;;;0.40;;
47367;SDS011;34646;47.964;7.982;2023-08-06T11:30:45;0.50;;;0.20;;
47367;SDS011;34646;47.964;7.982;2023-08-06T11:36:46;0.60;;;0.30;;
47367;SDS011;34646;47.964;7.982;2023-08-06T11:42:46;2.87;;;0.30;;
47367;SDS011;34646;47.964;7.982;2023-08-06T11:48:54;0.80;;;0.30;;
47367;SDS011;34646;47.964;7.982;2023-08-06T11:55:05;0.50;;;0.30;;
47367;SDS011;34646;47.964;7.982;2023-08-06T12:01:07;0.65;;;0.30;;
47367;SDS011;34646;47.964;7.982;2023-08-06T12:07:08;0.73;;;0.30;;
47367;SDS011;34646;47.964;7.982;2023-08-06T12:13:09;0.97;;;0.20;;
47367;SDS011;34646;47.964;7.982;2023-08-06T12:19:10;0.40;;;0.20;;
47367;SDS011;34646;47.964;7.982;2023-08-06T12:25:11;0.63;;;0.30;;
47367;SDS011;34646;47.964;7.982;2023-08-06T12:31:12;1.00;;;0.30;;
47367;SDS011;34646;47.964;7.982;2023-08-06T12:37:13;0.50;;;0.20;;
47367;SDS011;34646;47.964;7.982;2023-08-06T12:43:13;0.50;;;0.20;;
47367;SDS011;34646;47.964;7.982;2023-08-06T12:49:14;0.40;;;0.20;;
47367;SDS011;34646;47.964;7.982;2023-08-06T12:55:15;0.43;;;0.23;;
47367;SDS011;34646;47.964;7.982;2023-08-06T13:01:15;0.63;;;0.20;;
47367;SDS011;34646;47.964;7.982;2023-08-06T13:07:16;0.37;;;0.20;;
47367;SDS011;34646;47.964;7.982;2023-08-06T13:13:17;0.57;;;0.22;;
47367;SDS011;34646;47.964;7.982;2023-08-06T13:19:18;0.10;;;0.10;;
47367;SDS011;34646;47.964;7.982;2023-08-06T13:25:19;0.37;;;0.20;;
47367;SDS011;34646;47.964;7.982;2023-08-06T13:31:20;0.40;;;0.17;;
47367;SDS011;34646;47.964;7.982;2023-08-06T13:37:20;0.50;;;0.30;;
47367;SDS011;34646;47.964;7.982;2023-08-06T13:43:21;0.10;;;0.10;;
47367;SDS011;34646;47.964;7.982;2023-08-06T13:49:22;0.37;;;0.20;;
47367;SDS011;34646;47.964;7.982;2023-08-06T13:55:22;0.53;;;0.10;;
47367;SDS011;34646;47.964;7.982;2023-08-06T14:01:23;0.47;;;0.20;;
47367;SDS011;34646;47.964;7.982;2023-08-06T14:07:23;0.50;;;0.20;;
47367;SDS011;34646;47.964;7.982;2023-08-06T14:13:25;0.40;;;0.20;;
47367;SDS011;34646;47.964;7.982;2023-08-06T14:19:25;0.37;;;0.17;;
47367;SDS011;34646;47.964;7.982;2023-08-06T14:25:26;0.17;;;0.10;;
47367;SDS011;34646;47.964;7.982;2023-08-06T14:31:27;0.37;;;0.30;;
47367;SDS011;34646;47.964;7.982;2023-08-06T14:37:28;0.20;;;0.10;;
47367;SDS011;34646;47.964;7.982;2023-08-06T14:43:29;0.32;;;0.20;;
47367;SDS011;34646;47.964;7.982;2023-08-06T14:49:29;0.50;;;0.20;;
47367;SDS011;34646;47.964;7.982;2023-08-06T14:55:30;0.33;;;0.30;;
47367;SDS011;34646;47.964;7.982;2023-08-06T15:01:31;0.37;;;0.20;;
47367;SDS011;34646;47.964;7.982;2023-08-06T15:07:32;0.23;;;0.20;;
47367;SDS011;34646;47.964;7.982;2023-08-06T15:13:35;0.30;;;0.20;;
47367;SDS011;34646;47.964;7.982;2023-08-06T15:19:36;0.27;;;0.20;;
47367;SDS011;34646;47.964;7.982;2023-08-06T15:25:36;0.90;;;0.33;;
47367;SDS011;34646;47.964;7.982;2023-08-06T15:31:37;0.57;;;0.30;;
47367;SDS011;34646;47.964;7.982;2023-08-06T15:37:39;0.60;;;0.20;;
47367;SDS011;34646;47.964;7.982;2023-08-06T15:43:40;1.08;;;0.30;;
47367;SDS011;34646;47.964;7.982;2023-08-06T15:49:41;0.55;;;0.30;;
47367;SDS011;34646;47.964;7.982;2023-08-06T15:55:42;0.30;;;0.20;;
47367;SDS011;34646;47.964;7.982;2023-08-06T16:01:43;0.68;;;0.43;;
47367;SDS011;34646;47.964;7.982;2023-08-06T16:07:44;1.13;;;0.40;;
47367;SDS011;34646;47.964;7.982;2023-08-06T16:13:45;0.73;;;0.40;;
47367;SDS011;34646;47.964;7.982;2023-08-06T16:19:46;0.60;;;0.30;;
47367;SDS011;34646;47.964;7.982;2023-08-06T16:25:46;1.30;;;0.40;;
47367;SDS011;34646;47.964;7.982;2023-08-06T16:31:47;0.40;;;0.30;;
47367;SDS011;34646;47.964;7.982;2023-08-06T16:37:48;0.50;;;0.20;;
47367;SDS011;34646;47.964;7.982;2023-08-06T16:43:49;0.40;;;0.20;;
47367;SDS011;34646;47.964;7.982;2023-08-06T16:49:49;0.20;;;0.20;;
47367;SDS011;34646;47.964;7.982;2023-08-06T16:55:50;1.00;;;0.43;;
47367;SDS011;34646;47.964;7.982;2023-08-06T17:01:53;0.30;;;0.20;;
47367;SDS011;34646;47.964;7.982;2023-08-06T17:07:54;1.10;;;0.30;;
47367;SDS011;34646;47.964;7.982;2023-08-06T17:13:55;1.27;;;0.53;;
47367;SDS011;34646;47.964;7.982;2023-08-06T17:19:56;1.13;;;0.63;;
47367;SDS011;34646;47.964;7.982;2023-08-06T17:25:57;1.42;;;0.45;;
47367;SDS011;34646;47.964;7.982;2023-08-06T17:31:57;1.60;;;0.40;;
47367;SDS011;34646;47.964;7.982;2023-08-06T17:37:58;3.23;;;0.43;;
47367;SDS011;34646;47.964;7.982;2023-08-06T17:43:59;2.65;;;0.50;;
47367;SDS011;34646;47.964;7.982;2023-08-06T17:50:00;1.00;;;0.40;;
47367;SDS011;34646;47.964;7.982;2023-08-06T17:56:01;2.17;;;0.67;;
47367;SDS011;34646;47.964;7.982;2023-08-06T18:08:03;7.17;;;0.90;;
47367;SDS011;34646;47.964;7.982;2023-08-06T18:14:04;8.37;;;1.33;;
47367;SDS011;34646;47.964;7.982;2023-08-06T18:20:05;5.13;;;0.83;;
47367;SDS011;34646;47.964;7.982;2023-08-06T18:32:07;10.52;;;1.60;;
47367;SDS011;34646;47.964;7.982;2023-08-06T18:38:08;6.67;;;1.33;;
47367;SDS011;34646;47.964;7.982;2023-08-06T18:44:08;5.78;;;1.33;;
47367;SDS011;34646;47.964;7.982;2023-08-06T18:50:09;3.97;;;1.67;;
47367;SDS011;34646;47.964;7.982;2023-08-06T18:56:11;6.40;;;1.50;;
47367;SDS011;34646;47.964;7.982;2023-08-06T19:02:11;7.33;;;1.33;;
47367;SDS011;34646;47.964;7.982;2023-08-06T19:08:12;107.17;;;26.53;;
47367;SDS011;34646;47.964;7.982;2023-08-06T19:14:13;30.00;;;8.47;;
47367;SDS011;34646;47.964;7.982;2023-08-06T19:20:14;34.28;;;8.63;;
47367;SDS011;34646;47.964;7.982;2023-08-06T19:26:15;39.53;;;9.57;;
47367;SDS011;34646;47.964;7.982;2023-08-06T19:32:15;30.80;;;8.67;;
47367;SDS011;34646;47.964;7.982;2023-08-06T19:38:17;23.60;;;8.00;;
47367;SDS011;34646;47.964;7.982;2023-08-06T19:44:19;24.45;;;8.32;;
47367;SDS011;34646;47.964;7.982;2023-08-06T19:50:19;28.40;;;9.10;;
47367;SDS011;34646;47.964;7.982;2023-08-06T19:56:21;25.15;;;7.57;;
47367;SDS011;34646;47.964;7.982;2023-08-06T20:02:22;24.60;;;7.77;;
47367;SDS011;34646;47.964;7.982;2023-08-06T20:08:23;17.75;;;6.82;;
47367;SDS011;34646;47.964;7.982;2023-08-06T20:14:23;28.13;;;7.40;;
47367;SDS011;34646;47.964;7.982;2023-08-06T20:20:24;16.57;;;6.53;;
47367;SDS011;34646;47.964;7.982;2023-08-06T20:26:25;49.13;;;7.67;;
47367;SDS011;34646;47.964;7.982;2023-08-06T20:32:26;23.95;;;7.50;;
47367;SDS011;34646;47.964;7.982;2023-08-06T20:38:27;24.07;;;7.03;;
47367;SDS011;34646;47.964;7.982;2023-08-06T20:44:28;22.00;;;7.63;;
47367;SDS011;34646;47.964;7.982;2023-08-06T20:50:36;23.52;;;6.15;;
47367;SDS011;34646;47.964;7.982;2023-08-06T20:56:39;25.75;;;7.38;;
47367;SDS011;34646;47.964;7.982;2023-08-06T21:02:40;20.07;;;6.63;;
47367;SDS011;34646;47.964;7.982;2023-08-06T21:08:40;25.20;;;6.90;;
47367;SDS011;34646;47.964;7.982;2023-08-06T21:14:41;17.37;;;5.83;;
47367;SDS011;34646;47.964;7.982;2023-08-06T21:20:42;16.00;;;5.53;;
47367;SDS011;34646;47.964;7.982;2023-08-06T21:26:42;21.40;;;5.67;;
47367;SDS011;34646;47.964;7.982;2023-08-06T21:32:43;11.60;;;4.67;;
47367;SDS011;34646;47.964;7.982;2023-08-06T21:38:44;16.27;;;4.90;;
47367;SDS011;34646;47.964;7.982;2023-08-06T21:44:44;11.03;;;3.73;;
47367;SDS011;34646;47.964;7.982;2023-08-06T21:50:45;8.87;;;3.63;;
47367;SDS011;34646;47.964;7.982;2023-08-06T21:56:46;10.10;;;3.30;;
47367;SDS011;34646;47.964;7.982;2023-08-06T22:02:46;9.00;;;3.47;;
47367;SDS011;34646;47.964;7.982;2023-08-06T22:08:47;6.97;;;2.40;;
47367;SDS011;34646;47.964;7.982;2023-08-06T22:14:48;10.63;;;3.27;;
47367;SDS011;34646;47.964;7.982;2023-08-06T22:20:49;6.82;;;2.97;;
47367;SDS011;34646;47.964;7.982;2023-08-06T22:26:50;6.60;;;2.88;;
47367;SDS011;34646;47.964;7.982;2023-08-06T22:32:51;8.67;;;3.10;;
47367;SDS011;34646;47.964;7.982;2023-08-06T22:38:52;4.30;;;2.30;;
47367;SDS011;34646;47.964;7.982;2023-08-06T22:44:53;6.57;;;2.30;;
47367;SDS011;34646;47.964;7.982;2023-08-06T22:50:54;5.50;;;2.17;;
47367;SDS011;34646;47.964;7.982;2023-08-06T22:56:54;6.40;;;1.93;;
47367;SDS011;34646;47.964;7.982;2023-08-06T23:02:55;5.00;;;2.40;;
47367;SDS011;34646;47.964;7.982;2023-08-06T23:08:56;5.40;;;2.13;;
47367;SDS011;34646;47.964;7.982;2023-08-06T23:14:56;3.73;;;1.93;;
47367;SDS011;34646;47.964;7.982;2023-08-06T23:20:57;7.23;;;2.30;;
47367;SDS011;34646;47.964;7.982;2023-08-06T23:26:58;4.10;;;1.90;;
47367;SDS011;34646;47.964;7.982;2023-08-06T23:32:58;3.97;;;1.77;;
47367;SDS011;34646;47.964;7.982;2023-08-06T23:38:59;6.30;;;1.47;;
47367;SDS011;34646;47.964;7.982;2023-08-06T23:44:59;5.23;;;1.70;;
47367;SDS011;34646;47.964;7.982;2023-08-06T23:51:01;4.43;;;1.70;;
47367;SDS011;34646;47.964;7.982;2023-08-06T23:57:01;3.70;;;1.60;;
